ニース/コート・ダジュール の空港の天気 - METARとTAF

コート・ダジュール空港(ニース) ( LFMN / NCE ) - フランス ニース
飛行場実況気象(Metar)
観測時間04/27 18:30 CEST (04/27 16:30 UTC)
風向・風速南南西 5m/s
視程10km以上
天気現象
少しの雲 雲底高度 460m
全天の4割程度の雲 雲底高度 2010m
全天の8割程度の雲 雲底高度 3960m
気温15℃
湿度67%
気圧1007hPa
METARLFMN 271630Z 21010KT 9999 FEW015 SCT066 BKN130 15/09 Q1007 NOSIG
過去の天気等 Google飛行場航空写真 Wunderground天気予報

過去48時間のMETAR

飛行場予報(TAF)
発表時間: 4/27 16:00 CEST (4/27 14:00 UTC)
予報対象時間: 27日17時 CEST ~ 28日23時 CEST
風向・風速南南西 4m/s
視程10km以上
少しの雲 雲底高度 460m
全天の8割程度の雲 雲底高度 2,440m
27日18時 CEST ~ 27日21時 CEST に一時的に
風向・風速南西 8m/s 瞬間風速 13m/s
27日21時 CEST ~ 27日23時 CEST に徐々に
視程10km以上
なし
28日9時 CEST ~ 28日11時 CEST に徐々に
風向・風速東 5m/s
28日14時 CEST ~ 28日20時 CEST に一時的に
風向・風速東 8m/s 瞬間風速 13m/s
28日20時 CEST ~ 28日22時 CEST に徐々に
風向・風速北北西 5m/s
TAF LFMN 271400Z 2715/2821 21008KT 9999 FEW015 BKN080
TEMPO 2716/2719 23015G25KT
BECMG 2719/2721 CAVOK
BECMG 2807/2809 10010KT
TEMPO 2812/2818 08015G25KT
BECMG 2818/2820 34010KT